Time;durP1;ratioP1;P1;durP2;ratioP2;P2;SDS_P1;SDS_P2;PMS_P1;PMS_P2;Temp;Humidity;BMP_temperature;BMP_pressure;BME280_temperature;BME280_humidity;BME280_pressure;Samples;Min_cycle;Max_cycle;Signal;HPM_P1;HPM_P2
2023/08/16 00:00:14;;;;;;;7.82;5.95;;;27.00;68.50;;;;;;5052584;28;20075;-74
2023/08/16 00:02:40;;;;;;;7.22;5.30;;;27.00;68.60;;;;;;5052125;28;20474;-74
2023/08/16 00:05:06;;;;;;;8.07;6.25;;;27.00;68.50;;;;;;5052427;28;20025;-74
2023/08/16 00:07:34;;;;;;;9.35;5.50;;;27.00;68.70;;;;;;5052537;28;20542;-74
2023/08/16 00:10:00;;;;;;;11.15;5.32;;;27.00;69.00;;;;;;5052687;28;20048;-74
2023/08/16 00:12:26;;;;;;;7.50;5.38;;;27.00;69.00;;;;;;5055012;28;20033;-74
2023/08/16 00:14:52;;;;;;;7.53;5.68;;;27.00;69.10;;;;;;5056491;28;20083;-74
2023/08/16 00:17:17;;;;;;;7.55;5.50;;;26.90;69.20;;;;;;5056368;28;20021;-74
2023/08/16 00:19:43;;;;;;;6.25;5.57;;;26.90;69.20;;;;;;5056285;28;20175;-74
2023/08/16 00:22:09;;;;;;;6.70;5.35;;;26.90;69.20;;;;;;5056859;28;20017;-74
2023/08/16 00:24:35;;;;;;;8.45;5.75;;;26.90;69.20;;;;;;5056250;28;20033;-73
2023/08/16 00:27:01;;;;;;;7.00;5.85;;;26.90;69.30;;;;;;5038472;28;20033;-74
2023/08/16 00:29:26;;;;;;;6.97;6.25;;;26.90;69.40;;;;;;5056486;28;20025;-74
2023/08/16 00:31:52;;;;;;;6.53;5.22;;;26.90;69.60;;;;;;5056229;28;20118;-74
2023/08/16 00:34:18;;;;;;;6.38;5.70;;;26.90;69.50;;;;;;5056133;28;20020;-73
2023/08/16 00:36:44;;;;;;;8.77;5.95;;;26.90;69.60;;;;;;5056193;28;20045;-74
2023/08/16 00:39:09;;;;;;;9.25;5.28;;;26.90;69.80;;;;;;5056260;28;20021;-75
2023/08/16 00:41:35;;;;;;;8.18;5.28;;;26.90;69.80;;;;;;5056166;28;20025;-74
2023/08/16 00:44:01;;;;;;;10.00;5.75;;;26.80;69.80;;;;;;5056180;28;20426;-74
2023/08/16 00:46:27;;;;;;;9.73;5.85;;;26.80;69.90;;;;;;5056330;28;20036;-74
2023/08/16 00:48:53;;;;;;;7.20;6.18;;;26.80;69.80;;;;;;5056247;28;20522;-74
2023/08/16 00:51:20;;;;;;;9.88;6.05;;;26.70;70.10;;;;;;5055939;28;20098;-74
2023/08/16 00:53:46;;;;;;;9.20;5.65;;;26.80;70.00;;;;;;5055547;28;20035;-74
2023/08/16 00:56:14;;;;;;;6.30;5.57;;;26.70;70.10;;;;;;5055964;28;20025;-74
2023/08/16 00:58:41;;;;;;;10.70;5.93;;;26.70;70.40;;;;;;5053681;28;20029;-74
2023/08/16 01:01:07;;;;;;;7.65;5.70;;;26.70;70.30;;;;;;5052883;28;20045;-73
2023/08/16 01:03:32;;;;;;;5.53;5.03;;;26.70;70.50;;;;;;5052748;28;20056;-74
2023/08/16 01:05:58;;;;;;;7.07;5.93;;;26.60;70.50;;;;;;5055029;28;20060;-74
2023/08/16 01:08:24;;;;;;;6.70;5.97;;;26.60;70.50;;;;;;5055541;28;20475;-74
2023/08/16 01:11:24;;;;;;;8.60;5.40;;;26.60;70.70;;;;;;5055787;28;20151;-74
2023/08/16 01:14:13;;;;;;;6.35;5.75;;;26.60;71.00;;;;;;5037536;28;20033;-75
2023/08/16 01:16:42;;;;;;;8.45;5.60;;;26.60;71.20;;;;;;5055435;28;20650;-74
2023/08/16 01:19:10;;;;;;;10.70;5.80;;;26.60;71.40;;;;;;5055030;28;20029;-74
2023/08/16 01:21:47;;;;;;;12.55;6.10;;;26.50;71.30;;;;;;5054498;28;20021;-74
2023/08/16 01:24:22;;;;;;;7.85;5.90;;;26.50;71.30;;;;;;5053720;28;20035;-74
2023/08/16 01:26:49;;;;;;;9.98;5.47;;;26.50;71.70;;;;;;5055006;28;20028;-74
2023/08/16 01:29:16;;;;;;;7.75;5.28;;;26.50;71.50;;;;;;5055029;28;20091;-75
2023/08/16 01:31:44;;;;;;;11.27;6.47;;;26.50;71.40;;;;;;5055378;28;20043;-74
2023/08/16 01:34:09;;;;;;;9.98;6.45;;;26.50;71.30;;;;;;5055333;28;20025;-74
2023/08/16 01:36:35;;;;;;;7.20;6.25;;;26.40;71.40;;;;;;5054733;28;20049;-74
2023/08/16 01:39:01;;;;;;;9.80;6.28;;;26.40;71.40;;;;;;5054973;28;20036;-73
2023/08/16 01:41:46;;;;;;;6.10;5.40;;;26.40;71.40;;;;;;5054805;28;20025;-74
2023/08/16 01:44:12;;;;;;;8.52;5.57;;;26.40;71.70;;;;;;5037194;28;20130;-74
2023/08/16 01:46:39;;;;;;;8.65;5.90;;;26.40;71.60;;;;;;5055205;28;20103;-74
2023/08/16 01:49:06;;;;;;;7.93;6.43;;;26.40;71.70;;;;;;5054832;28;20017;-73
2023/08/16 01:51:32;;;;;;;9.30;6.30;;;26.40;71.90;;;;;;5054535;28;20390;-74
2023/08/16 01:53:58;;;;;;;10.88;6.38;;;26.40;72.10;;;;;;5054704;28;20017;-73
2023/08/16 01:56:25;;;;;;;8.07;6.22;;;26.40;72.00;;;;;;5054719;28;20037;-73
2023/08/16 01:58:51;;;;;;;8.75;6.00;;;26.30;72.10;;;;;;5054220;28;20857;-74
2023/08/16 02:01:16;;;;;;;10.32;6.28;;;26.30;72.50;;;;;;5054898;28;20061;-74
2023/08/16 02:03:42;;;;;;;7.32;6.35;;;26.30;72.60;;;;;;5036870;28;20021;-74
2023/08/16 02:06:08;;;;;;;8.60;6.28;;;26.20;72.60;;;;;;5054537;28;20449;-73
2023/08/16 02:08:34;;;;;;;6.68;5.82;;;26.20;72.50;;;;;;5054573;28;20017;-73
2023/08/16 02:10:59;;;;;;;8.95;6.38;;;26.20;72.50;;;;;;5054475;28;20421;-73
2023/08/16 02:13:25;;;;;;;7.93;5.88;;;26.20;72.50;;;;;;5054302;28;20483;-73
2023/08/16 02:15:59;;;;;;;8.57;5.97;;;26.10;72.50;;;;;;5054173;28;20060;-74
2023/08/16 02:18:25;;;;;;;7.20;5.93;;;26.20;72.70;;;;;;5054076;28;20071;-74
2023/08/16 02:20:52;;;;;;;8.65;6.22;;;26.10;72.80;;;;;;5054272;28;20029;-74
2023/08/16 02:23:18;;;;;;;8.30;5.75;;;26.10;73.20;;;;;;5054384;28;20021;-74
2023/08/16 02:25:44;;;;;;;6.22;5.60;;;26.00;73.10;;;;;;5054425;28;20554;-74
2023/08/16 02:28:09;;;;;;;7.32;5.78;;;26.00;73.30;;;;;;5054211;28;20024;-74
2023/08/16 02:30:35;;;;;;;11.70;6.15;;;26.00;73.20;;;;;;5054296;28;20095;-74
2023/08/16 02:33:01;;;;;;;9.90;6.32;;;26.00;73.20;;;;;;5052711;28;20032;-74
2023/08/16 02:35:27;;;;;;;7.00;6.22;;;26.00;73.20;;;;;;5053458;28;20045;-74
2023/08/16 02:37:52;;;;;;;7.32;6.57;;;26.00;73.50;;;;;;5053961;28;20048;-75
2023/08/16 02:40:18;;;;;;;6.35;5.68;;;26.00;73.70;;;;;;5054075;28;20062;-75
2023/08/16 02:42:45;;;;;;;8.10;5.60;;;25.90;73.50;;;;;;5053644;28;20021;-74
2023/08/16 02:45:11;;;;;;;10.93;6.80;;;25.90;73.70;;;;;;5053687;28;20025;-75
2023/08/16 02:47:37;;;;;;;11.43;6.28;;;25.90;74.10;;;;;;5053674;28;20391;-75
2023/08/16 02:50:03;;;;;;;6.30;5.70;;;25.90;74.00;;;;;;5053759;28;20108;-75
2023/08/16 02:52:28;;;;;;;8.60;6.63;;;25.90;73.90;;;;;;5053486;28;20041;-75
2023/08/16 02:54:54;;;;;;;8.70;6.15;;;25.80;74.20;;;;;;5053971;28;20024;-75
2023/08/16 02:57:20;;;;;;;8.15;6.05;;;25.80;74.60;;;;;;5055112;28;20033;-75
2023/08/16 02:59:46;;;;;;;6.35;5.75;;;25.80;74.10;;;;;;5053610;28;20072;-75
2023/08/16 03:02:16;;;;;;;8.02;6.10;;;25.80;74.00;;;;;;5052994;28;20025;-75
2023/08/16 03:04:41;;;;;;;7.75;6.70;;;25.80;74.10;;;;;;5053050;28;20411;-75
2023/08/16 03:07:08;;;;;;;13.00;6.63;;;25.80;74.30;;;;;;5053120;28;20084;-76
2023/08/16 03:09:34;;;;;;;11.60;6.18;;;25.80;74.20;;;;;;5053034;28;20028;-75
2023/08/16 03:12:01;;;;;;;8.50;6.40;;;25.80;74.30;;;;;;5052845;28;20048;-75
2023/08/16 03:14:28;;;;;;;8.40;5.88;;;25.70;74.10;;;;;;5035189;28;20111;-75
2023/08/16 03:16:54;;;;;;;11.30;6.18;;;25.80;74.20;;;;;;5052904;28;20103;-75
2023/08/16 03:19:20;;;;;;;9.02;6.50;;;25.70;74.10;;;;;;5053158;28;20438;-75
2023/08/16 03:21:46;;;;;;;7.32;6.63;;;25.70;74.40;;;;;;5053048;28;20025;-75
2023/08/16 03:24:11;;;;;;;12.40;6.95;;;25.70;75.20;;;;;;5052862;28;20040;-75
2023/08/16 03:26:37;;;;;;;12.20;7.10;;;25.60;75.40;;;;;;5052933;28;20033;-75
2023/08/16 03:29:04;;;;;;;8.07;6.82;;;25.60;75.70;;;;;;5052569;28;20029;-75
2023/08/16 03:31:30;;;;;;;9.40;6.60;;;25.50;75.70;;;;;;5052473;28;20056;-75
2023/08/16 03:33:55;;;;;;;11.75;6.15;;;25.50;75.70;;;;;;5053002;28;20064;-75
2023/08/16 03:36:21;;;;;;;8.55;6.15;;;25.40;75.80;;;;;;5052741;28;20053;-75
2023/08/16 03:38:47;;;;;;;12.02;6.95;;;25.40;75.70;;;;;;5053065;28;20017;-75
2023/08/16 03:41:13;;;;;;;11.25;7.03;;;25.40;75.80;;;;;;5052629;28;20118;-75
2023/08/16 03:43:38;;;;;;;9.35;6.78;;;25.40;75.90;;;;;;5052443;28;20028;-75
2023/08/16 03:46:05;;;;;;;10.18;7.60;;;25.40;76.30;;;;;;5033503;28;20029;-75
2023/08/16 03:48:31;;;;;;;9.10;7.15;;;25.30;76.70;;;;;;5052572;28;20094;-75
2023/08/16 03:50:56;;;;;;;12.02;7.05;;;25.30;76.70;;;;;;5052594;28;20025;-75
2023/08/16 03:53:22;;;;;;;7.90;7.05;;;25.20;76.60;;;;;;5052685;28;20040;-75
2023/08/16 03:55:54;;;;;;;9.95;7.55;;;25.20;76.80;;;;;;5052678;28;20387;-73
2023/08/16 03:58:20;;;;;;;9.60;7.00;;;25.20;76.80;;;;;;5052568;28;20091;-75
2023/08/16 04:00:48;;;;;;;7.95;6.85;;;25.10;77.20;;;;;;5052659;28;20084;-73
2023/08/16 04:03:13;;;;;;;8.07;6.82;;;25.10;77.10;;;;;;5052510;28;20064;-75
2023/08/16 04:05:39;;;;;;;7.57;6.70;;;25.10;77.00;;;;;;5052545;28;20118;-75
2023/08/16 04:08:05;;;;;;;9.70;6.85;;;25.00;77.40;;;;;;5052295;28;20021;-74
2023/08/16 04:10:31;;;;;;;8.88;7.30;;;25.00;77.40;;;;;;5034164;28;20158;-73
2023/08/16 04:12:56;;;;;;;8.55;7.18;;;25.00;77.40;;;;;;5052644;28;20029;-74
2023/08/16 04:15:22;;;;;;;9.63;7.05;;;25.00;78.30;;;;;;5052673;28;20095;-73
2023/08/16 04:17:48;;;;;;;12.50;7.70;;;24.90;78.20;;;;;;5051072;28;20025;-74
2023/08/16 04:20:14;;;;;;;9.13;7.22;;;24.90;78.60;;;;;;5052313;28;20032;-73
2023/08/16 04:22:39;;;;;;;8.82;6.93;;;24.80;78.60;;;;;;5052272;28;20025;-73
2023/08/16 04:25:06;;;;;;;12.32;7.40;;;24.80;78.90;;;;;;5052434;28;20513;-73
2023/08/16 04:27:32;;;;;;;9.13;7.40;;;24.80;78.90;;;;;;5052383;28;20104;-73
2023/08/16 04:29:58;;;;;;;8.57;7.78;;;24.70;78.90;;;;;;5052044;28;20048;-74
2023/08/16 04:32:24;;;;;;;13.43;7.63;;;24.70;79.10;;;;;;5052592;28;20071;-73
2023/08/16 04:34:50;;;;;;;9.52;7.70;;;24.70;79.30;;;;;;5067926;28;20048;-74
2023/08/16 04:37:16;;;;;;;10.80;7.63;;;24.70;79.40;;;;;;5071759;28;20035;-74
2023/08/16 04:39:41;;;;;;;13.57;7.55;;;24.70;79.10;;;;;;5071351;28;20082;-74
2023/08/16 04:42:07;;;;;;;8.95;7.53;;;24.70;79.60;;;;;;5072156;28;20475;-73
2023/08/16 04:44:33;;;;;;;9.15;7.68;;;24.70;79.70;;;;;;5054573;28;20031;-74
2023/08/16 04:46:59;;;;;;;9.57;7.57;;;24.70;79.80;;;;;;5070575;28;20028;-74
2023/08/16 04:49:26;;;;;;;8.27;7.43;;;24.70;79.70;;;;;;5072023;28;20048;-73
2023/08/16 04:51:53;;;;;;;12.77;7.05;;;24.70;79.80;;;;;;5071707;28;20028;-74
2023/08/16 04:54:19;;;;;;;8.18;7.32;;;24.70;80.10;;;;;;5071881;28;20062;-73
2023/08/16 04:56:45;;;;;;;9.75;6.55;;;24.70;80.40;;;;;;5071830;28;20474;-73
2023/08/16 04:59:10;;;;;;;7.75;7.05;;;24.70;80.90;;;;;;5075675;28;20020;-73
2023/08/16 05:01:36;;;;;;;12.73;6.97;;;24.70;80.10;;;;;;5074942;28;20036;-74
2023/08/16 05:04:03;;;;;;;7.10;6.40;;;24.70;79.60;;;;;;5075279;28;20017;-74
2023/08/16 05:06:32;;;;;;;10.15;6.97;;;24.70;79.50;;;;;;5075204;28;20024;-72
2023/08/16 05:08:58;;;;;;;9.05;6.38;;;24.70;79.20;;;;;;5075198;28;20052;-74
2023/08/16 05:11:24;;;;;;;8.23;6.50;;;24.80;78.80;;;;;;5075170;28;20054;-72
2023/08/16 05:13:50;;;;;;;12.88;6.45;;;24.80;79.00;;;;;;5074186;28;20032;-72
2023/08/16 05:16:15;;;;;;;13.43;6.35;;;24.80;79.00;;;;;;5075377;28;20052;-73
2023/08/16 05:18:41;;;;;;;8.07;6.63;;;24.90;78.90;;;;;;5075317;28;20028;-73
2023/08/16 05:21:07;;;;;;;7.82;6.78;;;24.90;78.70;;;;;;5075219;28;20028;-74
2023/08/16 05:23:34;;;;;;;10.35;6.70;;;24.90;78.70;;;;;;5074109;28;20032;-73
2023/08/16 05:26:00;;;;;;;10.73;6.63;;;25.00;78.90;;;;;;5075210;28;20028;-74
2023/08/16 05:28:26;;;;;;;11.77;7.20;;;25.00;78.90;;;;;;5074678;28;20020;-75
2023/08/16 05:30:52;;;;;;;10.98;6.85;;;25.00;78.90;;;;;;5075232;28;20070;-74
2023/08/16 05:33:18;;;;;;;10.00;6.75;;;25.00;78.40;;;;;;5074563;28;20036;-74
2023/08/16 05:35:44;;;;;;;11.27;7.60;;;25.00;78.50;;;;;;5074961;28;20037;-75
2023/08/16 05:38:10;;;;;;;12.23;6.40;;;25.00;78.70;;;;;;5074786;28;20027;-74
2023/08/16 05:40:35;;;;;;;11.63;7.43;;;25.10;79.30;;;;;;5075044;28;20024;-74
2023/08/16 05:43:01;;;;;;;12.07;6.60;;;25.20;79.00;;;;;;5074614;28;20035;-74
2023/08/16 05:45:28;;;;;;;7.50;6.63;;;25.20;78.90;;;;;;5074804;28;20025;-76
2023/08/16 05:47:54;;;;;;;7.13;6.43;;;25.20;78.60;;;;;;5075048;28;20031;-74
2023/08/16 05:50:21;;;;;;;10.20;7.00;;;25.30;78.60;;;;;;5074599;28;20048;-74
2023/08/16 05:52:46;;;;;;;8.32;6.40;;;25.30;78.60;;;;;;5074752;28;20098;-75
2023/08/16 05:55:12;;;;;;;8.10;6.10;;;25.40;78.90;;;;;;5074697;28;20024;-74
2023/08/16 05:57:38;;;;;;;10.98;7.22;;;25.40;78.90;;;;;;5074331;28;20021;-74
2023/08/16 06:00:04;;;;;;;11.73;6.68;;;25.40;79.20;;;;;;5074523;28;20024;-75
2023/08/16 06:02:30;;;;;;;8.80;6.68;;;25.40;79.50;;;;;;5056319;28;20062;-74
2023/08/16 06:04:58;;;;;;;14.23;7.85;;;25.40;79.50;;;;;;5074131;28;20016;-75
2023/08/16 06:07:26;;;;;;;17.15;7.40;;;25.40;79.60;;;;;;5074572;28;20024;-75
2023/08/16 06:09:52;;;;;;;18.35;7.70;;;25.40;80.30;;;;;;5073879;28;20038;-75
2023/08/16 06:12:17;;;;;;;11.77;7.40;;;25.50;80.60;;;;;;5074603;28;20632;-75
2023/08/16 06:14:43;;;;;;;24.70;8.05;;;25.40;81.00;;;;;;5074714;28;20056;-73
2023/08/16 06:17:09;;;;;;;17.05;7.60;;;25.50;81.20;;;;;;5074268;28;20020;-74
2023/08/16 06:19:35;;;;;;;12.10;7.40;;;25.50;81.10;;;;;;5074477;28;20039;-74
2023/08/16 06:22:01;;;;;;;18.70;7.00;;;25.50;81.10;;;;;;5074645;28;20028;-75
2023/08/16 06:24:26;;;;;;;34.97;7.80;;;25.40;80.80;;;;;;5074385;28;20020;-76
2023/08/16 06:26:52;;;;;;;14.68;7.32;;;25.50;80.80;;;;;;5074200;28;20031;-75
2023/08/16 06:29:18;;;;;;;11.63;7.30;;;25.50;81.10;;;;;;5074494;28;20017;-80
2023/08/16 06:31:43;;;;;;;10.82;7.25;;;25.50;81.50;;;;;;5056758;28;20036;-74
2023/08/16 06:34:09;;;;;;;11.63;7.30;;;25.40;81.00;;;;;;5074461;28;20027;-77
2023/08/16 06:36:35;;;;;;;21.05;7.68;;;25.40;80.90;;;;;;5075118;28;20502;-80
2023/08/16 06:39:01;;;;;;;12.15;7.45;;;25.40;81.30;;;;;;5075094;28;20025;-81
2023/08/16 06:41:26;;;;;;;17.55;7.55;;;25.40;81.60;;;;;;5073874;28;20035;-81
2023/08/16 06:43:52;;;;;;;22.40;8.57;;;25.50;82.00;;;;;;5074046;28;20127;-82
2023/08/16 06:46:18;;;;;;;12.82;7.80;;;25.50;82.00;;;;;;5073980;28;20438;-81
2023/08/16 06:48:44;;;;;;;19.13;8.02;;;25.50;82.00;;;;;;5073991;28;20032;-84
2023/08/16 06:51:09;;;;;;;15.18;7.40;;;25.60;82.20;;;;;;5055839;28;20078;-86
2023/08/16 06:53:38;;;;;;;19.02;7.38;;;25.60;82.80;;;;;;5073591;28;20526;-82
2023/08/16 06:56:04;;;;;;;22.27;7.70;;;25.70;83.10;;;;;;5073908;28;20070;-85
2023/08/16 06:58:30;;;;;;;17.85;7.03;;;25.70;83.30;;;;;;5073003;28;20024;-77
2023/08/16 07:00:56;;;;;;;15.70;7.15;;;;;;;;;;5073139;28;20028;-82
2023/08/16 07:03:22;;;;;;;12.43;7.15;;;25.90;81.60;;;;;;5071492;28;20454;-81
2023/08/16 07:05:48;;;;;;;14.10;6.68;;;25.90;82.20;;;;;;5072394;28;20549;-79
2023/08/16 07:08:14;;;;;;;15.57;7.45;;;26.00;81.90;;;;;;5057652;28;20107;-80
2023/08/16 07:10:42;;;;;;;7.13;6.35;;;26.00;81.70;;;;;;5053451;28;20147;-77
2023/08/16 07:13:08;;;;;;;9.77;6.05;;;26.10;81.20;;;;;;5067745;28;20056;-76
2023/08/16 07:15:33;;;;;;;9.50;6.10;;;26.20;80.50;;;;;;5072353;28;20059;-82
2023/08/16 07:18:01;;;;;;;8.98;5.60;;;26.20;80.20;;;;;;5072781;28;20032;-78
2023/08/16 07:20:26;;;;;;;11.70;6.05;;;26.30;79.90;;;;;;5072343;28;20029;-76
2023/08/16 07:22:52;;;;;;;11.57;5.90;;;26.40;79.40;;;;;;5071622;28;20055;-76
2023/08/16 07:25:18;;;;;;;18.90;6.03;;;26.40;78.80;;;;;;5071496;28;20429;-77
2023/08/16 07:27:44;;;;;;;7.22;5.32;;;26.50;79.00;;;;;;5071720;28;20052;-79
2023/08/16 07:30:10;;;;;;;7.28;5.22;;;26.60;78.70;;;;;;5071341;28;20025;-75
2023/08/16 07:32:36;;;;;;;8.18;5.80;;;26.60;78.20;;;;;;5071327;28;20028;-78
2023/08/16 07:35:03;;;;;;;6.60;5.22;;;26.70;78.00;;;;;;5069389;28;20028;-78
2023/08/16 07:37:31;;;;;;;9.88;4.90;;;26.80;77.30;;;;;;5052455;28;20490;-79
2023/08/16 07:40:00;;;;;;;10.77;5.25;;;26.90;76.00;;;;;;5041982;28;20029;-81
2023/08/16 07:42:26;;;;;;;8.27;5.50;;;26.90;75.20;;;;;;5038715;28;20021;-79
2023/08/16 07:44:51;;;;;;;10.55;5.32;;;27.00;75.30;;;;;;5050750;28;20024;-78
2023/08/16 07:47:18;;;;;;;8.63;5.63;;;27.10;75.60;;;;;;5050314;28;20029;-79
2023/08/16 07:49:44;;;;;;;14.40;5.70;;;;;;;;;;5050417;28;20083;-78
2023/08/16 07:52:10;;;;;;;7.22;5.20;;;27.20;77.10;;;;;;5051119;28;20437;-77
2023/08/16 07:54:36;;;;;;;8.80;5.43;;;27.30;75.90;;;;;;5051956;28;20048;-78
2023/08/16 07:57:02;;;;;;;9.57;5.20;;;27.30;75.10;;;;;;5051880;28;20471;-73
2023/08/16 07:59:28;;;;;;;6.97;5.40;;;27.30;74.80;;;;;;5052037;28;20027;-77
2023/08/16 08:01:56;;;;;;;11.20;5.28;;;27.30;74.20;;;;;;5052241;28;20028;-76
2023/08/16 08:04:21;;;;;;;6.63;5.13;;;27.40;74.40;;;;;;5052117;28;20104;-77
2023/08/16 08:06:48;;;;;;;7.70;4.80;;;27.40;74.20;;;;;;5052262;28;20060;-76
2023/08/16 08:09:14;;;;;;;6.47;4.97;;;27.50;74.00;;;;;;5034012;28;20406;-78
2023/08/16 08:11:39;;;;;;;11.68;4.75;;;27.50;72.90;;;;;;5052186;28;20036;-77
2023/08/16 08:14:05;;;;;;;6.78;4.75;;;27.50;72.40;;;;;;5034402;28;20107;-76
2023/08/16 08:16:34;;;;;;;6.30;4.75;;;27.60;73.10;;;;;;5052119;28;20025;-78
2023/08/16 08:19:00;;;;;;;8.48;4.82;;;27.60;73.30;;;;;;5051690;28;20021;-79
2023/08/16 08:21:25;;;;;;;8.40;5.47;;;27.60;73.30;;;;;;5052493;28;20032;-89
2023/08/16 08:23:51;;;;;;;8.55;5.00;;;27.70;74.30;;;;;;5052800;28;20040;-92
2023/08/16 08:26:17;;;;;;;8.23;5.00;;;27.70;74.10;;;;;;5052714;28;20066;-90
2023/08/16 08:28:44;;;;;;;10.07;4.85;;;27.80;74.80;;;;;;5035318;28;20029;-90
2023/08/16 08:31:10;;;;;;;9.57;5.38;;;27.80;73.50;;;;;;5053423;28;20022;-88
2023/08/16 08:33:35;;;;;;;9.63;4.90;;;27.90;81.90;;;;;;5055340;28;20072;-90
2023/08/16 08:36:03;;;;;;;9.80;5.13;;;28.00;86.50;;;;;;5056972;28;20096;-89
2023/08/16 08:38:29;;;;;;;11.00;4.85;;;28.00;74.50;;;;;;5057026;28;20079;-89
2023/08/16 08:40:59;;;;;;;6.82;4.90;;;28.00;79.90;;;;;;5056899;28;20021;-76
2023/08/16 08:43:32;;;;;;;7.35;4.97;;;28.10;74.60;;;;;;5056451;28;20029;-83
2023/08/16 08:45:58;;;;;;;7.05;5.00;;;28.00;72.40;;;;;;5056224;28;20017;-82
2023/08/16 08:48:27;;;;;;;7.43;5.00;;;28.00;71.50;;;;;;5056335;28;20033;-86
2023/08/16 08:50:56;;;;;;;9.95;4.95;;;28.10;70.80;;;;;;5055648;28;20097;-83
2023/08/16 08:53:25;;;;;;;12.15;5.03;;;28.20;71.00;;;;;;5056343;28;20090;-85
2023/08/16 08:55:53;;;;;;;7.30;4.65;;;28.20;70.40;;;;;;5056367;28;20024;-86
2023/08/16 08:58:20;;;;;;;6.30;5.25;;;28.30;70.10;;;;;;5056301;28;20453;-86
2023/08/16 09:00:46;;;;;;;7.53;4.80;;;28.30;70.20;;;;;;5056046;28;20044;-84
2023/08/16 09:03:15;;;;;;;9.00;5.30;;;28.40;71.00;;;;;;5038089;28;20108;-86
2023/08/16 09:05:42;;;;;;;14.98;5.18;;;28.40;73.00;;;;;;5056228;28;20475;-84
2023/08/16 09:08:13;;;;;;;6.85;4.82;;;28.40;70.80;;;;;;5056162;28;20029;-86
2023/08/16 09:10:39;;;;;;;5.63;4.93;;;28.40;70.70;;;;;;5055955;28;20022;-84
2023/08/16 09:13:07;;;;;;;5.95;4.65;;;28.50;70.50;;;;;;5056190;28;20035;-85
2023/08/16 09:15:33;;;;;;;7.53;5.13;;;28.50;69.90;;;;;;5056407;28;20052;-83
2023/08/16 09:18:21;;;;;;;6.63;5.05;;;28.50;68.40;;;;;;5055580;28;20021;-86
2023/08/16 09:20:49;;;;;;;5.95;5.18;;;28.60;78.90;;;;;;5056267;28;20017;-84
2023/08/16 09:23:17;;;;;;;5.80;4.97;;;28.70;77.70;;;;;;5037850;28;20032;-81
2023/08/16 09:25:44;;;;;;;6.63;5.30;;;28.70;83.00;;;;;;5055645;28;20467;-84
2023/08/16 09:28:14;;;;;;;6.28;5.15;;;28.70;79.30;;;;;;5055493;28;20024;-86
2023/08/16 09:30:43;;;;;;;6.38;4.82;;;28.80;72.80;;;;;;5055560;28;20025;-83
2023/08/16 09:33:13;;;;;;;6.78;5.40;;;28.80;83.80;;;;;;5055626;28;20160;-81
2023/08/16 09:35:51;;;;;;;9.63;5.82;;;28.80;76.20;;;;;;5055775;28;20053;-84
2023/08/16 09:38:21;;;;;;;10.10;5.40;;;28.90;74.60;;;;;;5055507;28;20037;-85
2023/08/16 09:40:48;;;;;;;14.85;5.70;;;28.90;80.00;;;;;;5055431;28;20025;-83
2023/08/16 09:43:14;;;;;;;10.38;5.13;;;28.90;76.50;;;;;;5054811;28;20021;-85
2023/08/16 09:45:40;;;;;;;7.32;5.70;;;28.90;68.10;;;;;;5054706;28;20070;-83
2023/08/16 09:48:08;;;;;;;7.43;5.68;;;29.00;69.90;;;;;;5054911;28;20029;-87
2023/08/16 09:50:35;;;;;;;6.82;5.18;;;29.00;68.00;;;;;;5055244;28;20501;-88
2023/08/16 09:53:04;;;;;;;9.80;5.28;;;29.10;67.30;;;;;;5055173;28;20526;-84
2023/08/16 09:55:33;;;;;;;9.90;5.78;;;29.10;67.20;;;;;;5054716;28;20545;-85
2023/08/16 09:58:00;;;;;;;6.90;5.40;;;29.20;67.80;;;;;;5054770;28;20131;-86
2023/08/16 10:00:27;;;;;;;8.48;5.20;;;29.20;68.40;;;;;;5054879;28;20083;-85
2023/08/16 10:02:54;;;;;;;12.02;5.25;;;29.20;68.90;;;;;;5055097;28;20056;-86
2023/08/16 10:05:20;;;;;;;7.97;5.28;;;29.30;70.90;;;;;;5054781;28;20382;-85
2023/08/16 10:07:48;;;;;;;9.15;5.22;;;29.20;65.60;;;;;;5054882;28;20021;-86
2023/08/16 10:10:15;;;;;;;9.43;5.97;;;29.30;66.00;;;;;;5054655;28;20449;-84
2023/08/16 10:12:41;;;;;;;9.65;5.53;;;29.40;85.20;;;;;;5054825;28;20123;-85
2023/08/16 10:15:09;;;;;;;7.65;5.50;;;29.30;67.90;;;;;;5054797;28;20017;-85
2023/08/16 10:17:38;;;;;;;7.32;5.05;;;29.30;68.10;;;;;;5055003;28;20036;-84
2023/08/16 10:20:07;;;;;;;6.18;5.18;;;29.40;67.00;;;;;;5054694;28;20463;-85
2023/08/16 10:22:46;;;;;;;7.32;5.80;;;29.40;66.00;;;;;;5054698;28;20028;-85
2023/08/16 10:25:17;;;;;;;9.00;4.97;;;29.40;65.50;;;;;;5054852;28;20104;-83
2023/08/16 10:27:44;;;;;;;8.85;5.13;;;29.50;65.80;;;;;;5054828;28;20029;-87
2023/08/16 10:30:20;;;;;;;9.57;5.10;;;29.50;65.90;;;;;;5036771;28;20378;-86
2023/08/16 10:32:49;;;;;;;5.95;5.35;;;29.60;75.50;;;;;;5054371;28;20470;-87
2023/08/16 10:35:16;;;;;;;6.75;4.88;;;29.60;72.60;;;;;;5054295;28;20041;-86
2023/08/16 10:37:42;;;;;;;7.63;5.43;;;29.60;67.50;;;;;;5054543;28;20491;-84
2023/08/16 10:40:18;;;;;;;11.77;5.10;;;29.70;74.80;;;;;;5054526;28;20021;-83
2023/08/16 10:43:05;;;;;;;8.88;5.35;;;29.70;72.00;;;;;;5036796;28;20029;-85
2023/08/16 10:45:35;;;;;;;7.82;4.85;;;29.70;71.50;;;;;;5054504;28;20025;-88
2023/08/16 10:48:14;;;;;;;8.00;5.30;;;29.70;69.70;;;;;;5036672;28;20417;-87
2023/08/16 10:50:40;;;;;;;8.50;4.90;;;29.70;70.20;;;;;;5054070;28;20391;-86
2023/08/16 10:53:07;;;;;;;6.57;4.53;;;29.70;70.60;;;;;;5054024;28;20041;-88
2023/08/16 10:55:33;;;;;;;12.00;5.00;;;29.70;70.30;;;;;;5054059;28;20021;-87
2023/08/16 10:57:59;;;;;;;7.35;4.63;;;29.80;73.70;;;;;;5054120;28;20025;-86
2023/08/16 11:00:33;;;;;;;8.45;5.43;;;29.80;64.40;;;;;;5054077;28;20039;-79
2023/08/16 11:03:04;;;;;;;5.30;4.80;;;29.80;66.00;;;;;;5035442;28;20398;-78
2023/08/16 11:05:34;;;;;;;9.02;5.30;;;29.80;66.00;;;;;;5053934;28;20013;-88
2023/08/16 11:08:09;;;;;;;6.93;4.93;;;29.80;65.50;;;;;;5053926;28;20024;-85
2023/08/16 11:10:36;;;;;;;7.65;5.10;;;29.90;65.60;;;;;;5053288;28;20047;-85
2023/08/16 11:13:03;;;;;;;13.80;4.93;;;29.80;63.30;;;;;;5053647;28;20390;-81
2023/08/16 11:15:29;;;;;;;6.18;4.47;;;29.90;63.90;;;;;;5053503;28;20442;-84
2023/08/16 11:17:55;;;;;;;9.85;5.45;;;30.00;63.30;;;;;;5053584;28;20028;-83
2023/08/16 11:20:23;;;;;;;7.00;4.80;;;30.00;62.50;;;;;;5053226;28;20021;-84
2023/08/16 11:22:49;;;;;;;11.10;4.78;;;30.00;62.60;;;;;;5053874;28;20025;-82
2023/08/16 11:25:15;;;;;;;9.25;5.05;;;30.00;61.70;;;;;;5052991;28;20032;-85
2023/08/16 11:27:41;;;;;;;7.60;4.80;;;30.00;61.80;;;;;;5051749;28;20033;-79
2023/08/16 11:30:08;;;;;;;7.18;4.57;;;30.00;62.20;;;;;;5052948;28;20387;-89
2023/08/16 11:32:36;;;;;;;7.82;5.05;;;30.10;65.20;;;;;;5053178;28;20044;-89
2023/08/16 11:35:09;;;;;;;10.82;4.88;;;30.20;69.50;;;;;;5053326;28;20028;-90
2023/08/16 11:37:36;;;;;;;11.05;4.82;;;30.10;61.70;;;;;;5053955;28;20036;-91
2023/08/16 11:40:07;;;;;;;12.00;5.18;;;30.10;62.20;;;;;;5035922;28;20021;-92
2023/08/16 11:42:33;;;;;;;7.22;5.25;;;30.10;61.60;;;;;;5053688;28;20025;-90
2023/08/16 11:44:59;;;;;;;7.03;4.75;;;30.10;62.00;;;;;;5053310;28;20024;-76
2023/08/16 11:47:25;;;;;;;10.55;5.05;;;30.20;62.80;;;;;;5052932;28;20028;-78
2023/08/16 11:49:51;;;;;;;6.60;4.68;;;30.30;62.20;;;;;;5052694;28;20091;-77
2023/08/16 11:52:24;;;;;;;5.90;4.95;;;30.30;61.80;;;;;;5052992;28;20398;-88
2023/08/16 11:55:04;;;;;;;7.10;4.55;;;30.40;61.80;;;;;;5056648;28;20025;-86
2023/08/16 11:57:42;;;;;;;6.75;4.90;;;30.30;61.80;;;;;;5053674;28;20025;-80
2023/08/16 12:00:08;;;;;;;9.43;4.53;;;30.40;61.90;;;;;;5052819;28;20529;-80
2023/08/16 12:02:36;;;;;;;5.32;4.57;;;30.40;62.20;;;;;;5052877;28;20094;-79
2023/08/16 12:05:11;;;;;;;8.05;4.85;;;30.40;61.20;;;;;;5052619;28;20495;-85
2023/08/16 12:07:51;;;;;;;9.98;5.38;;;30.50;61.10;;;;;;5052034;28;20025;-78
2023/08/16 12:10:27;;;;;;;8.70;4.82;;;30.50;61.90;;;;;;5034772;28;20038;-76
2023/08/16 12:12:56;;;;;;;6.35;4.78;;;30.50;61.20;;;;;;5034335;28;20032;-80
2023/08/16 12:15:24;;;;;;;11.43;4.78;;;30.60;61.20;;;;;;5052220;28;20112;-79
2023/08/16 12:17:52;;;;;;;8.60;5.18;;;30.60;61.30;;;;;;5052569;28;20029;-81
2023/08/16 12:20:18;;;;;;;9.05;5.10;;;30.60;61.50;;;;;;5052304;28;20406;-82
2023/08/16 12:22:45;;;;;;;7.93;4.70;;;30.60;61.10;;;;;;5052633;28;20037;-83
2023/08/16 12:25:11;;;;;;;5.25;4.20;;;30.60;60.40;;;;;;5052467;28;20032;-80
2023/08/16 12:27:37;;;;;;;6.90;4.35;;;30.70;60.40;;;;;;5052096;28;20028;-83
2023/08/16 12:30:05;;;;;;;10.35;4.60;;;30.70;59.90;;;;;;5052356;28;20021;-78
2023/08/16 12:32:31;;;;;;;5.40;4.70;;;30.70;59.60;;;;;;5051417;28;20048;-77
2023/08/16 12:34:57;;;;;;;8.98;4.40;;;30.80;59.80;;;;;;5050870;28;20029;-79
2023/08/16 12:37:23;;;;;;;6.47;4.70;;;30.80;58.80;;;;;;5050700;28;20063;-79
2023/08/16 12:39:49;;;;;;;8.60;4.60;;;30.80;59.00;;;;;;5049556;28;20033;-79
2023/08/16 12:42:14;;;;;;;9.15;4.80;;;30.80;58.80;;;;;;5050575;28;20104;-79
2023/08/16 12:44:40;;;;;;;5.75;4.40;;;30.80;58.90;;;;;;5052082;28;20032;-76